createdAt,value
2022-12-19T00:00:22.334Z,88.20
2022-12-19T00:01:22.355Z,88.10
2022-12-19T00:02:22.624Z,88.10
2022-12-19T00:03:22.648Z,88.31
2022-12-19T00:04:22.572Z,88.31
2022-12-19T00:05:22.302Z,88.10
2022-12-19T00:06:22.294Z,88.20
2022-12-19T00:07:22.531Z,88.10
2022-12-19T00:08:22.242Z,88.20
2022-12-19T00:09:22.506Z,88.10
2022-12-19T00:10:22.230Z,87.88
2022-12-19T00:11:22.224Z,87.99
2022-12-19T00:12:22.212Z,87.88
2022-12-19T00:13:22.405Z,87.99
2022-12-19T00:14:22.437Z,87.99
2022-12-19T00:15:22.398Z,88.20
2022-12-19T00:16:22.524Z,88.20
2022-12-19T00:17:22.482Z,88.20
2022-12-19T00:18:22.131Z,88.20
2022-12-19T00:19:22.202Z,88.20
2022-12-19T00:20:22.110Z,88.31
2022-12-19T00:21:22.418Z,88.20
2022-12-19T00:22:22.134Z,88.10
2022-12-19T00:23:22.372Z,87.99
2022-12-19T00:24:22.146Z,87.99
2022-12-19T00:25:22.068Z,87.88
2022-12-19T00:26:22.274Z,87.88
2022-12-19T00:27:22.052Z,87.88
2022-12-19T00:28:22.302Z,87.85
2022-12-19T00:29:22.314Z,87.74
2022-12-19T00:30:22.004Z,87.74
2022-12-19T00:31:22.063Z,87.63
2022-12-19T00:32:23.766Z,87.74
2022-12-19T00:33:22.276Z,87.74
2022-12-19T00:34:22.001Z,87.63
2022-12-19T00:35:21.941Z,87.63
2022-12-19T00:36:22.827Z,87.74
2022-12-19T00:37:21.941Z,87.74
2022-12-19T00:38:21.948Z,87.74
2022-12-19T00:39:22.683Z,87.63
2022-12-19T00:40:22.172Z,87.63
2022-12-19T00:41:22.163Z,87.74
2022-12-19T00:42:22.204Z,87.85
2022-12-19T00:43:21.926Z,87.85
2022-12-19T00:44:21.860Z,87.85
2022-12-19T00:45:21.916Z,88.10
2022-12-19T00:46:21.911Z,88.31
2022-12-19T00:47:22.149Z,88.52
2022-12-19T00:48:22.125Z,88.62
2022-12-19T00:49:21.847Z,88.73
2022-12-19T00:50:21.873Z,88.62
2022-12-19T00:51:21.846Z,88.62
2022-12-19T00:52:21.857Z,88.58
2022-12-19T00:53:22.094Z,88.41
2022-12-19T00:54:21.882Z,88.37
2022-12-19T00:55:22.076Z,88.48
2022-12-19T00:56:22.057Z,88.27
2022-12-19T00:57:21.959Z,88.16
2022-12-19T00:58:22.041Z,88.06
2022-12-19T00:59:26.883Z,87.95
2022-12-19T01:00:22.759Z,87.85
2022-12-19T01:01:21.799Z,87.63
2022-12-19T01:02:21.764Z,87.63
2022-12-19T01:03:21.764Z,87.74
2022-12-19T01:04:30.008Z,87.85
2022-12-19T01:05:22.943Z,87.95
2022-12-19T01:06:22.455Z,87.95
2022-12-19T01:07:21.906Z,87.95
2022-12-19T01:08:21.634Z,88.06
2022-12-19T01:09:21.802Z,88.06
2022-12-19T01:10:21.655Z,87.95
2022-12-19T01:11:21.639Z,87.85
2022-12-19T01:12:24.681Z,87.74
2022-12-19T01:13:21.607Z,87.85
2022-12-19T01:14:23.297Z,87.95
2022-12-19T01:15:21.584Z,87.85
2022-12-19T01:16:21.578Z,87.95
2022-12-19T01:17:21.572Z,87.85
2022-12-19T01:18:21.768Z,88.06
2022-12-19T01:19:21.544Z,87.95
2022-12-19T01:20:29.307Z,87.95
2022-12-19T01:21:22.509Z,87.95
2022-12-19T01:22:21.532Z,87.74
2022-12-19T01:23:21.531Z,87.63
2022-12-19T01:24:21.731Z,87.53
2022-12-19T01:25:21.761Z,87.74
2022-12-19T01:26:21.795Z,87.85
2022-12-19T01:27:21.764Z,87.85
2022-12-19T01:28:21.443Z,87.74
2022-12-19T01:29:21.447Z,87.85
2022-12-19T01:30:21.472Z,87.95
2022-12-19T01:31:21.691Z,88.06
2022-12-19T01:32:21.402Z,87.95
2022-12-19T01:33:21.409Z,88.16
2022-12-19T01:34:21.387Z,88.06
2022-12-19T01:35:22.340Z,88.06
2022-12-19T01:36:21.370Z,88.16
2022-12-19T01:37:21.710Z,88.16
2022-12-19T01:38:21.639Z,88.06
2022-12-19T01:39:21.837Z,88.16
2022-12-19T01:40:21.353Z,88.06
2022-12-19T01:41:21.392Z,88.06
2022-12-19T01:42:23.070Z,87.95
2022-12-19T01:43:22.292Z,87.74
2022-12-19T01:44:21.619Z,87.63
2022-12-19T01:45:21.449Z,87.63
2022-12-19T01:46:21.604Z,87.63
2022-12-19T01:47:21.786Z,87.32
2022-12-19T01:48:21.267Z,87.42
2022-12-19T01:49:25.121Z,87.32
2022-12-19T01:50:21.271Z,87.32
2022-12-19T01:51:21.632Z,87.21
2022-12-19T01:52:23.750Z,87.32
2022-12-19T01:53:21.198Z,87.53
2022-12-19T01:54:21.161Z,87.53
2022-12-19T01:55:21.209Z,87.53
2022-12-19T01:56:21.398Z,87.53
2022-12-19T01:57:21.501Z,87.53
2022-12-19T01:58:21.156Z,87.63
2022-12-19T01:59:21.183Z,87.63
2022-12-19T02:00:21.086Z,87.63
2022-12-19T02:01:21.245Z,87.38
2022-12-19T02:02:21.373Z,87.38
2022-12-19T02:03:21.084Z,87.28
2022-12-19T02:04:21.134Z,87.07
2022-12-19T02:05:21.118Z,86.96
2022-12-19T02:06:21.009Z,86.96
2022-12-19T02:07:21.084Z,86.86
2022-12-19T02:08:21.070Z,86.76
2022-12-19T02:09:21.338Z,86.65
2022-12-19T02:10:21.502Z,86.65
2022-12-19T02:11:20.990Z,86.65
2022-12-19T02:12:21.071Z,86.76
2022-12-19T02:13:20.961Z,86.65
2022-12-19T02:14:20.976Z,86.54
2022-12-19T02:15:21.212Z,86.44
2022-12-19T02:16:21.422Z,86.22
2022-12-19T02:17:20.949Z,86.22
2022-12-19T02:18:20.934Z,86.12
2022-12-19T02:19:21.872Z,86.22
2022-12-19T02:20:20.933Z,86.12
2022-12-19T02:21:20.887Z,86.02
2022-12-19T02:22:20.887Z,86.02
2022-12-19T02:23:21.270Z,86.12
2022-12-19T02:24:20.887Z,86.02
2022-12-19T02:25:21.162Z,85.91
2022-12-19T02:26:20.842Z,85.80
2022-12-19T02:27:20.939Z,85.77
2022-12-19T02:28:21.090Z,85.77
2022-12-19T02:29:20.919Z,85.66
2022-12-19T02:30:20.823Z,85.60
2022-12-19T02:31:21.217Z,85.60
2022-12-19T02:32:20.788Z,85.80
2022-12-19T02:33:20.998Z,85.80
2022-12-19T02:34:21.008Z,85.66
2022-12-19T02:35:20.967Z,85.70
2022-12-19T02:36:20.765Z,85.70
2022-12-19T02:37:20.981Z,85.80
2022-12-19T02:38:20.739Z,85.70
2022-12-19T02:39:20.967Z,85.70
2022-12-19T02:40:20.747Z,85.70
2022-12-19T02:41:20.980Z,85.80
2022-12-19T02:42:20.679Z,85.70
2022-12-19T02:43:21.002Z,85.70
2022-12-19T02:44:20.689Z,85.60
2022-12-19T02:45:22.009Z,85.60
2022-12-19T02:46:21.719Z,85.70
2022-12-19T02:47:20.748Z,85.70
2022-12-19T02:48:20.904Z,85.70
2022-12-19T02:49:28.275Z,85.80
2022-12-19T02:50:21.675Z,85.80
2022-12-19T02:51:20.684Z,85.60
2022-12-19T02:52:20.622Z,85.49
2022-12-19T02:53:21.823Z,85.45
2022-12-19T02:54:20.599Z,85.60
2022-12-19T02:55:20.611Z,85.49
2022-12-19T02:56:20.616Z,85.49
2022-12-19T02:57:20.587Z,85.60
2022-12-19T02:58:20.542Z,85.60
2022-12-19T02:59:20.558Z,85.60
2022-12-19T03:00:20.584Z,85.70
2022-12-19T03:01:20.649Z,85.70
2022-12-19T03:02:20.963Z,85.70
2022-12-19T03:03:20.645Z,85.80
2022-12-19T03:04:20.520Z,85.80
2022-12-19T03:05:20.562Z,85.80
2022-12-19T03:06:20.495Z,85.80
2022-12-19T03:07:20.460Z,85.91
2022-12-19T03:08:20.464Z,85.91
2022-12-19T03:09:20.433Z,86.02
2022-12-19T03:10:20.449Z,86.02
2022-12-19T03:11:20.457Z,85.91
2022-12-19T03:12:20.425Z,85.91
2022-12-19T03:13:20.745Z,85.70
2022-12-19T03:14:20.419Z,85.70
2022-12-19T03:15:20.431Z,85.70
2022-12-19T03:16:20.462Z,85.70
2022-12-19T03:17:20.371Z,85.70
2022-12-19T03:18:20.370Z,85.70
2022-12-19T03:19:20.579Z,85.80
2022-12-19T03:20:20.567Z,85.91
2022-12-19T03:21:20.319Z,85.80
2022-12-19T03:22:20.391Z,85.80
2022-12-19T03:23:20.320Z,85.70
2022-12-19T03:24:20.329Z,85.70
2022-12-19T03:25:20.353Z,85.70
2022-12-19T03:26:20.276Z,85.70
2022-12-19T03:27:20.318Z,85.70
2022-12-19T03:28:20.566Z,85.80
2022-12-19T03:29:20.262Z,85.70
2022-12-19T03:30:20.250Z,85.70
2022-12-19T03:31:20.335Z,85.70
2022-12-19T03:32:20.273Z,85.60
2022-12-19T03:33:20.477Z,85.70
2022-12-19T03:34:20.220Z,85.70
2022-12-19T03:35:20.204Z,85.70
2022-12-19T03:36:20.181Z,85.70
2022-12-19T03:37:20.206Z,85.60
2022-12-19T03:38:20.203Z,85.60
2022-12-19T03:39:20.417Z,85.80
2022-12-19T03:40:20.419Z,85.91
2022-12-19T03:41:20.427Z,85.91
2022-12-19T03:42:20.439Z,85.91
2022-12-19T03:43:20.165Z,85.80
2022-12-19T03:44:20.134Z,85.80
2022-12-19T03:45:20.078Z,85.80
2022-12-19T03:46:20.404Z,85.91
2022-12-19T03:47:20.129Z,85.80
2022-12-19T03:48:20.075Z,85.91
2022-12-19T03:49:20.079Z,85.70
2022-12-19T03:50:20.089Z,85.70
2022-12-19T03:51:20.299Z,85.77
2022-12-19T03:52:20.087Z,85.77
2022-12-19T03:53:20.026Z,85.66
2022-12-19T03:54:20.009Z,85.70
2022-12-19T03:55:20.003Z,85.66
2022-12-19T03:56:20.008Z,85.66
2022-12-19T03:57:19.996Z,85.60
2022-12-19T03:58:20.052Z,85.70
2022-12-19T03:59:20.224Z,85.70
2022-12-19T04:00:19.940Z,85.91
2022-12-19T04:01:20.029Z,85.91
2022-12-19T04:02:20.003Z,86.02
2022-12-19T04:03:20.002Z,85.87
2022-12-19T04:04:20.120Z,85.66
2022-12-19T04:05:19.931Z,85.55
2022-12-19T04:06:19.913Z,85.35
2022-12-19T04:07:19.904Z,85.35
2022-12-19T04:08:19.912Z,85.45
2022-12-19T04:09:22.547Z,85.45
2022-12-19T04:10:20.100Z,85.35
2022-12-19T04:11:19.884Z,85.24
2022-12-19T04:12:19.847Z,85.35
2022-12-19T04:13:19.830Z,85.35
2022-12-19T04:14:19.855Z,85.35
2022-12-19T04:15:19.795Z,85.35
2022-12-19T04:16:19.843Z,85.24
2022-12-19T04:17:19.832Z,85.35
2022-12-19T04:18:20.037Z,85.24
2022-12-19T04:19:19.790Z,85.13
2022-12-19T04:20:19.762Z,85.13
2022-12-19T04:21:19.763Z,85.24
2022-12-19T04:22:19.749Z,85.13
2022-12-19T04:23:19.761Z,85.13
2022-12-19T04:24:20.538Z,85.03
2022-12-19T04:25:19.706Z,85.13
2022-12-19T04:26:19.681Z,85.03
2022-12-19T04:27:19.720Z,84.92
2022-12-19T04:28:19.685Z,84.92
2022-12-19T04:29:19.666Z,85.03
2022-12-19T04:30:19.916Z,85.03
2022-12-19T04:31:19.643Z,85.03
2022-12-19T04:32:19.645Z,85.03
2022-12-19T04:33:19.615Z,85.03
2022-12-19T04:34:19.646Z,85.03
2022-12-19T04:35:19.624Z,84.92
2022-12-19T04:36:19.868Z,85.03
2022-12-19T04:37:19.906Z,85.03
2022-12-19T04:38:19.873Z,85.03
2022-12-19T04:39:19.894Z,85.03
2022-12-19T04:40:19.620Z,85.03
2022-12-19T04:41:19.547Z,85.13
2022-12-19T04:42:19.829Z,85.13
2022-12-19T04:43:19.533Z,85.03
2022-12-19T04:44:19.851Z,85.03
2022-12-19T04:45:19.813Z,85.13
2022-12-19T04:46:19.570Z,85.03
2022-12-19T04:47:19.505Z,84.89
2022-12-19T04:48:19.504Z,84.78
2022-12-19T04:49:19.485Z,84.99
2022-12-19T04:50:19.706Z,84.99
2022-12-19T04:51:19.750Z,84.99
2022-12-19T04:52:19.472Z,84.89
2022-12-19T04:53:19.437Z,84.89
2022-12-19T04:54:19.493Z,84.78
2022-12-19T04:55:19.649Z,84.78
2022-12-19T04:56:19.416Z,84.78
2022-12-19T04:57:19.711Z,84.57
2022-12-19T04:58:22.064Z,84.57
2022-12-19T04:59:19.367Z,84.25
2022-12-19T05:00:19.344Z,84.15
2022-12-19T05:01:19.647Z,84.15
2022-12-19T05:02:19.476Z,84.36
2022-12-19T05:03:19.393Z,84.47
2022-12-19T05:04:19.334Z,84.36
2022-12-19T05:05:19.304Z,84.25
2022-12-19T05:06:19.315Z,84.15
2022-12-19T05:07:19.287Z,84.05
2022-12-19T05:08:19.493Z,84.05
2022-12-19T05:09:19.300Z,84.05
2022-12-19T05:10:19.281Z,83.94
2022-12-19T05:11:20.087Z,84.15
2022-12-19T05:12:19.235Z,84.15
2022-12-19T05:13:19.199Z,84.15
2022-12-19T05:14:19.229Z,84.25
2022-12-19T05:15:19.191Z,84.15
2022-12-19T05:16:19.336Z,84.15
2022-12-19T05:17:19.174Z,84.15
2022-12-19T05:18:19.181Z,84.15
2022-12-19T05:19:19.204Z,84.15
2022-12-19T05:20:19.190Z,84.05
2022-12-19T05:21:19.157Z,83.73
2022-12-19T05:22:19.396Z,83.94
2022-12-19T05:23:19.105Z,84.25
2022-12-19T05:24:19.116Z,84.36
2022-12-19T05:25:19.117Z,84.36
2022-12-19T05:26:19.097Z,84.50
2022-12-19T05:27:19.339Z,84.71
2022-12-19T05:28:19.347Z,84.71
2022-12-19T05:29:19.128Z,84.71
2022-12-19T05:30:19.066Z,84.71
2022-12-19T05:31:19.207Z,84.61
2022-12-19T05:32:19.045Z,84.50
2022-12-19T05:33:19.072Z,84.50
2022-12-19T05:34:19.282Z,84.50
2022-12-19T05:35:19.050Z,84.47
2022-12-19T05:36:19.102Z,84.47
2022-12-19T05:37:19.008Z,84.47
2022-12-19T05:38:19.000Z,84.36
2022-12-19T05:39:19.190Z,84.25
2022-12-19T05:40:18.978Z,84.15
2022-12-19T05:41:19.208Z,84.15
2022-12-19T05:42:18.950Z,83.94
2022-12-19T05:43:18.915Z,83.94
2022-12-19T05:44:18.915Z,83.83
2022-12-19T05:45:18.930Z,83.83
2022-12-19T05:46:18.901Z,83.69
2022-12-19T05:47:18.895Z,83.48
2022-12-19T05:48:18.902Z,83.37
2022-12-19T05:49:18.944Z,83.37
2022-12-19T05:50:18.886Z,83.37
2022-12-19T05:51:19.603Z,83.37
2022-12-19T05:52:19.147Z,83.48
2022-12-19T05:53:23.303Z,83.48
2022-12-19T05:54:19.847Z,83.59
2022-12-19T05:55:19.096Z,83.59
2022-12-19T05:56:19.116Z,83.59
2022-12-19T05:57:18.794Z,83.59
2022-12-19T05:58:18.806Z,83.48
2022-12-19T05:59:19.017Z,83.48
2022-12-19T06:00:18.795Z,83.69
2022-12-19T06:01:18.878Z,83.80
2022-12-19T06:02:18.876Z,83.80
2022-12-19T06:03:18.835Z,83.80
2022-12-19T06:04:18.735Z,83.69
2022-12-19T06:05:18.723Z,83.80
2022-12-19T06:06:18.722Z,83.69
2022-12-19T06:07:21.073Z,83.80
2022-12-19T06:08:18.733Z,83.80
2022-12-19T06:09:18.715Z,83.80
2022-12-19T06:10:18.685Z,83.69
2022-12-19T06:11:18.718Z,83.90
2022-12-19T06:12:18.856Z,84.01
2022-12-19T06:13:23.569Z,84.22
2022-12-19T06:14:19.776Z,84.32
2022-12-19T06:15:18.597Z,84.53
2022-12-19T06:16:18.648Z,84.42
2022-12-19T06:17:18.633Z,84.32
2022-12-19T06:18:18.828Z,84.32
2022-12-19T06:19:18.546Z,84.42
2022-12-19T06:20:18.902Z,84.32
2022-12-19T06:21:18.559Z,84.11
2022-12-19T06:22:18.757Z,84.11
2022-12-19T06:23:18.547Z,84.11
2022-12-19T06:24:18.792Z,84.01
2022-12-19T06:25:20.021Z,84.11
2022-12-19T06:26:20.123Z,84.11
2022-12-19T06:27:18.505Z,84.22
2022-12-19T06:28:18.709Z,84.11
2022-12-19T06:29:18.485Z,84.08
2022-12-19T06:30:18.722Z,84.08
2022-12-19T06:31:18.518Z,84.08
2022-12-19T06:32:19.275Z,83.97
2022-12-19T06:33:18.407Z,84.08
2022-12-19T06:34:46.991Z,83.97
2022-12-19T06:35:19.420Z,83.86
2022-12-19T06:36:18.391Z,83.76
2022-12-19T06:37:18.329Z,83.76
2022-12-19T06:38:18.362Z,83.76
2022-12-19T06:39:18.447Z,83.86
2022-12-19T06:40:18.360Z,83.86
2022-12-19T06:41:18.361Z,83.97
2022-12-19T06:42:18.547Z,84.08
2022-12-19T06:43:18.589Z,84.08
2022-12-19T06:44:18.295Z,83.97
2022-12-19T06:45:18.288Z,83.97
2022-12-19T06:46:18.327Z,83.76
2022-12-19T06:47:18.241Z,83.86
2022-12-19T06:48:18.525Z,83.86
2022-12-19T06:49:19.045Z,83.65
2022-12-19T06:50:18.526Z,83.54
2022-12-19T06:51:18.276Z,83.54
2022-12-19T06:52:18.431Z,83.76
2022-12-19T06:53:18.196Z,83.72
2022-12-19T06:54:18.286Z,83.54
2022-12-19T06:55:18.427Z,83.65
2022-12-19T06:56:18.181Z,83.54
2022-12-19T06:57:18.117Z,83.65
2022-12-19T06:58:21.450Z,83.83
2022-12-19T06:59:19.903Z,83.51
2022-12-19T07:00:18.130Z,83.40
2022-12-19T07:01:18.171Z,83.40
2022-12-19T07:02:18.205Z,83.40
2022-12-19T07:03:18.096Z,83.40
2022-12-19T07:04:18.055Z,83.40
2022-12-19T07:05:18.165Z,83.30
2022-12-19T07:06:18.207Z,83.30
2022-12-19T07:07:18.033Z,83.20
2022-12-19T07:08:18.048Z,83.30
2022-12-19T07:09:18.006Z,83.15
2022-12-19T07:10:18.036Z,83.20
2022-12-19T07:11:18.020Z,82.98
2022-12-19T07:12:18.293Z,82.88
2022-12-19T07:13:18.229Z,83.20
2022-12-19T07:14:17.959Z,83.26
2022-12-19T07:15:17.973Z,82.84
2022-12-19T07:16:17.988Z,82.74
2022-12-19T07:17:18.194Z,82.63
2022-12-19T07:18:18.189Z,82.63
2022-12-19T07:19:18.160Z,82.53
2022-12-19T07:20:18.019Z,82.74
2022-12-19T07:21:18.016Z,82.63
2022-12-19T07:22:17.897Z,82.53
2022-12-19T07:23:17.907Z,82.42
2022-12-19T07:24:19.062Z,82.21
2022-12-19T07:25:17.831Z,82.00
2022-12-19T07:26:18.688Z,82.00
2022-12-19T07:27:18.128Z,82.10
2022-12-19T07:28:17.846Z,82.21
2022-12-19T07:29:17.852Z,82.10
2022-12-19T07:30:18.035Z,82.21
2022-12-19T07:31:17.857Z,82.21
2022-12-19T07:32:18.070Z,82.28
2022-12-19T07:33:21.374Z,82.17
2022-12-19T07:34:17.752Z,82.17
2022-12-19T07:35:17.756Z,82.81
2022-12-19T07:36:17.756Z,82.59
2022-12-19T07:37:18.007Z,82.39
2022-12-19T07:38:17.869Z,81.96
2022-12-19T07:39:18.021Z,81.86
2022-12-19T07:40:17.729Z,81.76
2022-12-19T07:41:17.762Z,81.76
2022-12-19T07:42:18.033Z,81.86
2022-12-19T07:43:17.664Z,81.65
2022-12-19T07:44:17.681Z,81.65
2022-12-19T07:45:17.712Z,81.54
2022-12-19T07:46:17.657Z,81.65
2022-12-19T07:47:17.654Z,81.61
2022-12-19T07:48:17.621Z,81.40
2022-12-19T07:49:22.436Z,81.34
2022-12-19T07:50:18.714Z,81.54
2022-12-19T07:51:17.949Z,81.76
2022-12-19T07:52:17.949Z,81.86
2022-12-19T07:53:17.542Z,81.82
2022-12-19T07:54:19.193Z,81.61
2022-12-19T07:55:18.476Z,81.51
2022-12-19T07:56:17.560Z,81.61
2022-12-19T07:57:17.564Z,81.61
2022-12-19T07:58:17.815Z,81.61
2022-12-19T07:59:17.653Z,81.40
2022-12-19T08:00:17.495Z,81.40
2022-12-19T08:01:17.646Z,81.26
2022-12-19T08:02:18.013Z,81.05
2022-12-19T08:03:17.487Z,81.05
2022-12-19T08:04:17.792Z,81.05
2022-12-19T08:05:17.480Z,81.05
2022-12-19T08:06:17.442Z,80.84
2022-12-19T08:07:19.300Z,80.74
2022-12-19T08:08:17.521Z,80.84
2022-12-19T08:09:17.398Z,80.84
2022-12-19T08:10:17.672Z,80.94
2022-12-19T08:11:17.748Z,80.94
2022-12-19T08:12:17.353Z,80.84
2022-12-19T08:13:17.379Z,80.94
2022-12-19T08:14:17.575Z,80.84
2022-12-19T08:15:17.370Z,80.94
2022-12-19T08:16:17.395Z,80.84
2022-12-19T08:17:21.374Z,80.63
2022-12-19T08:18:17.361Z,80.38
2022-12-19T08:19:17.312Z,80.38
2022-12-19T08:20:17.318Z,80.49
2022-12-19T08:21:17.328Z,80.07
2022-12-19T08:22:17.525Z,80.07
2022-12-19T08:23:17.347Z,80.18
2022-12-19T08:24:19.149Z,80.07
2022-12-19T08:25:17.225Z,80.28
2022-12-19T08:26:17.240Z,80.07
2022-12-19T08:27:17.258Z,80.07
2022-12-19T08:28:17.264Z,80.07
2022-12-19T08:29:17.220Z,79.97
2022-12-19T08:30:17.191Z,79.75
2022-12-19T08:31:17.272Z,79.75
2022-12-19T08:32:20.902Z,79.72
2022-12-19T08:33:17.283Z,79.61
2022-12-19T08:34:17.443Z,79.51
2022-12-19T08:35:17.193Z,79.51
2022-12-19T08:36:17.188Z,79.51
2022-12-19T08:37:17.150Z,79.41
2022-12-19T08:38:17.197Z,79.41
2022-12-19T08:39:17.348Z,79.20
2022-12-19T08:40:17.095Z,79.30
2022-12-19T08:41:17.105Z,79.30
2022-12-19T08:42:17.277Z,79.30
2022-12-19T08:43:17.103Z,79.30
2022-12-19T08:44:17.187Z,79.05
2022-12-19T08:45:17.158Z,78.95
2022-12-19T08:46:17.999Z,79.05
2022-12-19T08:47:17.404Z,78.95
2022-12-19T08:48:17.050Z,78.85
2022-12-19T08:49:17.045Z,78.74
2022-12-19T08:50:17.197Z,78.64
2022-12-19T08:51:17.011Z,78.74
2022-12-19T08:52:19.119Z,78.64
2022-12-19T08:53:20.183Z,78.53
2022-12-19T08:54:19.264Z,78.64
2022-12-19T08:55:17.279Z,78.64
2022-12-19T08:56:16.920Z,78.53
2022-12-19T08:57:19.014Z,78.50
2022-12-19T08:58:16.917Z,78.43
2022-12-19T08:59:21.473Z,78.43
2022-12-19T09:00:17.888Z,78.50
2022-12-19T09:01:17.050Z,78.50
2022-12-19T09:02:16.954Z,82.06
2022-12-19T09:03:17.075Z,80.24
2022-12-19T09:05:51.587Z,78.60
2022-12-19T09:06:01.553Z,78.08
2022-12-19T09:06:19.222Z,78.29
2022-12-19T09:07:16.810Z,78.29
2022-12-19T09:08:17.125Z,78.39
2022-12-19T09:09:16.828Z,78.39
2022-12-19T09:10:17.013Z,78.29
2022-12-19T09:11:16.827Z,78.18
2022-12-19T09:12:17.031Z,78.08
2022-12-19T09:13:16.807Z,78.08
2022-12-19T09:14:20.987Z,78.08
2022-12-19T09:15:17.771Z,78.08
2022-12-19T09:16:16.772Z,77.97
2022-12-19T09:17:17.057Z,78.08
2022-12-19T09:18:16.759Z,78.15
2022-12-19T09:19:16.724Z,78.15
2022-12-19T09:20:22.760Z,78.04
2022-12-19T09:21:17.934Z,78.15
2022-12-19T09:22:16.721Z,78.15
2022-12-19T09:23:16.699Z,78.25
2022-12-19T09:24:18.539Z,78.15
2022-12-19T09:25:16.683Z,78.15
2022-12-19T09:26:16.995Z,78.15
2022-12-19T09:27:17.098Z,78.15
2022-12-19T09:28:32.027Z,77.94
2022-12-19T09:29:20.343Z,77.62
2022-12-19T09:30:16.845Z,77.62
2022-12-19T09:31:16.886Z,77.62
2022-12-19T09:32:16.852Z,77.69
2022-12-19T09:33:16.552Z,77.59
2022-12-19T09:34:16.532Z,77.48
2022-12-19T09:35:16.564Z,77.48
2022-12-19T09:36:16.792Z,77.38
2022-12-19T09:37:17.846Z,77.28
2022-12-19T09:38:16.783Z,77.17
2022-12-19T09:39:16.834Z,77.17
2022-12-19T09:40:16.507Z,77.17
2022-12-19T09:41:16.525Z,77.24
2022-12-19T09:42:16.487Z,77.14
2022-12-19T09:43:16.446Z,77.14
2022-12-19T09:44:16.727Z,77.24
2022-12-19T09:45:25.971Z,77.24
2022-12-19T09:46:17.538Z,77.24
2022-12-19T09:47:16.453Z,77.14
2022-12-19T09:48:24.233Z,77.14
2022-12-19T09:49:17.427Z,77.14
2022-12-19T09:50:16.739Z,76.93
2022-12-19T09:51:16.503Z,76.93
2022-12-19T09:52:16.489Z,76.82
2022-12-19T09:53:17.541Z,76.68
2022-12-19T09:54:18.548Z,76.57
2022-12-19T09:55:17.160Z,76.57
2022-12-19T09:56:16.318Z,76.47
2022-12-19T09:57:16.348Z,76.37
2022-12-19T09:58:16.294Z,76.37
2022-12-19T09:59:16.650Z,76.06
2022-12-19T10:00:16.318Z,76.06
2022-12-19T10:01:16.539Z,75.95
2022-12-19T10:02:16.459Z,76.06
2022-12-19T10:03:16.627Z,76.23
2022-12-19T10:04:16.388Z,76.33
2022-12-19T10:05:29.696Z,76.12
2022-12-19T10:07:15.964Z,76.02
2022-12-19T10:07:37.486Z,75.92
2022-12-19T10:08:17.182Z,76.12
2022-12-19T10:10:24.173Z,76.02
2022-12-19T10:11:25.670Z,75.71
2022-12-19T10:12:41.099Z,75.81
2022-12-19T10:12:43.160Z,75.88
2022-12-19T10:13:17.572Z,75.67
2022-12-19T10:14:16.374Z,75.36
2022-12-19T10:15:16.142Z,75.15
2022-12-19T10:16:16.141Z,75.01
2022-12-19T10:17:24.909Z,74.80
2022-12-19T10:18:17.322Z,74.60
2022-12-19T10:19:16.098Z,74.38
2022-12-19T10:20:16.866Z,74.38
2022-12-19T10:21:16.339Z,74.38
2022-12-19T10:22:18.693Z,74.49
2022-12-19T10:23:16.035Z,74.60
2022-12-19T10:24:17.159Z,74.60
2022-12-19T10:25:16.039Z,74.70
2022-12-19T10:26:16.053Z,74.38
2022-12-19T10:27:16.011Z,74.49
2022-12-19T10:28:16.031Z,74.49
2022-12-19T10:29:15.978Z,74.28
2022-12-19T10:30:15.971Z,74.15
2022-12-19T10:31:21.648Z,74.25
2022-12-19T10:32:17.282Z,74.15
2022-12-19T10:33:20.564Z,73.93
2022-12-19T10:34:15.937Z,73.93
2022-12-19T10:35:16.225Z,73.93
2022-12-19T10:36:15.978Z,73.83
2022-12-19T10:37:27.690Z,73.62
2022-12-19T10:38:17.150Z,73.59
2022-12-19T10:39:15.914Z,73.59
2022-12-19T10:40:17.384Z,73.49
2022-12-19T10:41:16.919Z,73.59
2022-12-19T10:42:15.876Z,73.59
2022-12-19T10:43:25.602Z,73.27
2022-12-19T10:44:17.071Z,73.07
2022-12-19T10:45:15.829Z,73.07
2022-12-19T10:46:16.144Z,73.17
2022-12-19T10:47:16.084Z,73.17
2022-12-19T10:48:16.120Z,73.38
2022-12-19T10:49:19.214Z,73.59
2022-12-19T10:50:16.701Z,73.59
2022-12-19T10:51:15.907Z,73.49
2022-12-19T10:52:15.823Z,73.24
2022-12-19T10:53:15.740Z,73.03
2022-12-19T10:54:16.975Z,72.62
2022-12-19T10:55:16.131Z,72.62
2022-12-19T10:56:15.802Z,72.48
2022-12-19T10:57:15.990Z,72.17
2022-12-19T10:58:15.939Z,72.17
2022-12-19T10:59:15.841Z,71.96
2022-12-19T11:00:15.780Z,71.75
2022-12-19T11:01:15.866Z,71.86
2022-12-19T11:02:15.894Z,71.92
2022-12-19T11:03:19.156Z,71.82
2022-12-19T11:04:15.915Z,71.72
2022-12-19T11:05:15.709Z,71.61
2022-12-19T11:06:15.658Z,71.51
2022-12-19T11:07:16.121Z,71.41
2022-12-19T11:08:16.127Z,71.51
2022-12-19T11:09:16.490Z,71.65
2022-12-19T11:11:12.630Z,71.75
2022-12-19T11:12:42.461Z,72.17
2022-12-19T11:15:37.180Z,72.48
2022-12-19T11:17:16.589Z,72.93
2022-12-19T11:18:22.050Z,72.58
2022-12-19T11:18:41.881Z,72.69
2022-12-19T11:19:29.680Z,72.72
2022-12-19T11:21:38.748Z,72.93
2022-12-19T11:27:19.935Z,73.14
2022-12-19T11:29:18.621Z,73.66
2022-12-19T11:29:26.686Z,74.39
2022-12-19T11:29:33.971Z,73.35
2022-12-19T11:29:34.397Z,74.07
2022-12-19T11:29:38.826Z,74.70
2022-12-19T11:29:39.635Z,75.95
2022-12-19T11:29:39.999Z,74.80
2022-12-19T11:30:39.205Z,75.01
2022-12-19T11:30:43.935Z,75.43
2022-12-19T11:30:45.321Z,76.26
2022-12-19T11:31:43.942Z,76.47
2022-12-19T11:32:38.685Z,77.51
2022-12-19T11:33:16.435Z,77.62
2022-12-19T11:34:15.336Z,77.72
2022-12-19T11:35:15.581Z,77.93
2022-12-19T11:36:15.598Z,77.62
2022-12-19T11:37:15.316Z,77.93
2022-12-19T11:38:15.313Z,78.03
2022-12-19T11:39:15.326Z,78.14
2022-12-19T11:40:15.275Z,78.24
2022-12-19T11:41:15.269Z,78.24
2022-12-19T11:42:15.487Z,78.34
2022-12-19T11:44:16.556Z,79.18
2022-12-19T11:45:15.264Z,79.49
2022-12-19T11:46:21.492Z,79.60
2022-12-19T11:47:16.432Z,79.49
2022-12-19T11:48:15.232Z,79.70
2022-12-19T11:49:15.188Z,80.02
2022-12-19T11:50:15.226Z,80.33
2022-12-19T11:51:15.235Z,80.85
2022-12-19T11:52:36.992Z,81.26
2022-12-19T11:53:19.238Z,81.58
2022-12-19T11:54:16.705Z,81.79
2022-12-19T11:55:15.139Z,81.99
2022-12-19T11:56:16.418Z,82.31
2022-12-19T11:57:15.069Z,82.72
2022-12-19T11:58:15.459Z,82.72
2022-12-19T11:59:15.140Z,82.93
2022-12-19T12:00:15.080Z,82.93
2022-12-19T12:01:15.081Z,83.14
2022-12-19T12:02:15.071Z,83.35
2022-12-19T12:03:16.080Z,83.87
2022-12-19T12:04:15.176Z,84.08
2022-12-19T12:05:15.025Z,84.28
2022-12-19T12:06:15.277Z,84.60
2022-12-19T12:07:33.325Z,85.02
2022-12-19T12:11:25.882Z,84.91
2022-12-19T12:14:37.188Z,85.68
2022-12-19T12:15:12.687Z,85.22
2022-12-19T12:15:42.268Z,85.36
2022-12-19T12:16:37.431Z,86.30
2022-12-19T12:19:43.265Z,86.72
2022-12-19T12:23:39.899Z,86.93
2022-12-19T12:26:34.847Z,87.04
2022-12-19T12:31:10.131Z,88.66
2022-12-19T12:31:12.902Z,87.10
2022-12-19T12:31:14.028Z,88.08
2022-12-19T12:31:18.384Z,87.66
2022-12-19T12:31:19.171Z,88.35
2022-12-19T12:31:31.134Z,88.39
2022-12-19T12:31:31.950Z,88.91
2022-12-19T12:31:32.148Z,87.35
2022-12-19T12:31:38.888Z,89.22
2022-12-19T12:31:42.784Z,90.47
2022-12-19T12:31:43.409Z,90.89
2022-12-19T12:31:43.764Z,90.47
2022-12-19T12:31:44.251Z,90.12
2022-12-19T12:31:52.576Z,91.00
2022-12-19T12:31:58.647Z,89.64
2022-12-19T12:35:31.525Z,91.93
2022-12-19T12:35:33.026Z,91.83
2022-12-19T12:35:51.823Z,91.62
2022-12-19T12:38:23.781Z,93.04
2022-12-19T12:39:20.751Z,93.24
2022-12-19T12:40:15.871Z,93.35
2022-12-19T12:41:15.639Z,93.56
2022-12-19T12:42:14.672Z,94.18
2022-12-19T12:43:14.627Z,94.29
2022-12-19T12:44:14.642Z,94.39
2022-12-19T12:45:14.861Z,94.49
2022-12-19T12:46:14.653Z,94.70
2022-12-19T12:47:14.564Z,94.92
2022-12-19T12:48:14.596Z,95.33
2022-12-19T12:49:14.537Z,95.64
2022-12-19T12:50:14.781Z,95.64
2022-12-19T12:51:14.588Z,95.75
2022-12-19T12:52:14.918Z,95.85
2022-12-19T12:53:14.735Z,96.26
2022-12-19T12:54:14.808Z,96.37
2022-12-19T12:55:14.832Z,96.69
2022-12-19T12:56:14.734Z,96.79
2022-12-19T12:57:15.673Z,97.00
2022-12-19T12:58:17.068Z,97.20
2022-12-19T12:59:15.462Z,97.20